createdAt,value
2019-05-09T00:00:14.130Z,94369.70
2019-05-09T00:01:17.735Z,94364.10
2019-05-09T00:02:28.648Z,94361.59
2019-05-09T00:03:33.458Z,94358.90
2019-05-09T00:04:37.218Z,94357.66
2019-05-09T00:05:40.708Z,94355.84
2019-05-09T00:06:44.327Z,94359.94
2019-05-09T00:07:47.778Z,94355.78
2019-05-09T00:08:53.240Z,94355.19
2019-05-09T00:09:56.593Z,94367.41
2019-05-09T00:11:00.152Z,94368.72
2019-05-09T00:12:03.895Z,94367.84
2019-05-09T00:13:07.430Z,94364.21
2019-05-09T00:14:12.978Z,94367.70
2019-05-09T00:15:16.334Z,94363.81
2019-05-09T00:16:19.906Z,94368.80
2019-05-09T00:17:23.430Z,94368.16
2019-05-09T00:18:26.899Z,94370.04
2019-05-09T00:19:30.438Z,94366.28
2019-05-09T00:20:38.001Z,94367.67
2019-05-09T00:21:43.711Z,94366.02
2019-05-09T00:22:47.338Z,94371.23
2019-05-09T00:23:50.886Z,94369.28
2019-05-09T00:24:54.358Z,94371.80
2019-05-09T00:25:57.913Z,94368.05
2019-05-09T00:27:03.644Z,94361.41
2019-05-09T00:28:07.081Z,94360.09
2019-05-09T00:29:14.050Z,94365.08
2019-05-09T00:30:19.155Z,94363.98
2019-05-09T00:31:24.318Z,94366.43
2019-05-09T00:32:34.082Z,94364.78
2019-05-09T00:33:37.371Z,94370.09
2019-05-09T00:34:44.184Z,94369.47
2019-05-09T00:35:47.712Z,94379.09
2019-05-09T00:36:51.211Z,94366.31
2019-05-09T00:37:58.757Z,94374.72
2019-05-09T00:39:04.086Z,94373.44
2019-05-09T00:40:07.546Z,94376.03
2019-05-09T00:41:11.087Z,94376.89
2019-05-09T00:42:14.647Z,94373.06
2019-05-09T00:43:18.182Z,94371.52
2019-05-09T00:44:28.811Z,94369.17
2019-05-09T00:45:33.979Z,94365.11
2019-05-09T00:46:53.413Z,94363.80
2019-05-09T00:47:56.462Z,94363.33
2019-05-09T00:49:07.362Z,94362.08
2019-05-09T00:50:13.115Z,94367.96
2019-05-09T00:51:16.236Z,94367.50
2019-05-09T00:52:19.727Z,94359.34
2019-05-09T00:53:23.353Z,94364.08
2019-05-09T00:54:26.977Z,94366.08
2019-05-09T00:55:30.522Z,94361.92
2019-05-09T00:56:34.066Z,94366.99
2019-05-09T00:57:37.556Z,94367.27
2019-05-09T00:58:41.027Z,94364.37
2019-05-09T00:59:44.685Z,94371.03
2019-05-09T01:00:48.302Z,94362.69
2019-05-09T01:01:54.139Z,94367.84
2019-05-09T01:02:57.111Z,94365.97
2019-05-09T01:04:00.578Z,94365.66
2019-05-09T01:05:04.690Z,94362.91
2019-05-09T01:06:08.230Z,94360.53
2019-05-09T01:07:13.796Z,94359.84
2019-05-09T01:08:16.961Z,94358.63
2019-05-09T01:09:20.423Z,94358.29
2019-05-09T01:10:23.979Z,94352.23
2019-05-09T01:11:27.508Z,94356.26
2019-05-09T01:12:31.014Z,94349.32
2019-05-09T01:13:34.546Z,94351.95
2019-05-09T01:14:38.151Z,94346.42
2019-05-09T01:15:43.876Z,94343.27
2019-05-09T01:16:46.960Z,94339.23
2019-05-09T01:17:50.496Z,94341.17
2019-05-09T01:18:54.618Z,94341.95
2019-05-09T01:19:59.089Z,94341.48
2019-05-09T01:21:04.012Z,94338.70
2019-05-09T01:22:07.755Z,94342.14
2019-05-09T01:23:11.221Z,94337.23
2019-05-09T01:24:14.756Z,94339.80
2019-05-09T01:25:18.218Z,94336.08
2019-05-09T01:26:23.952Z,94337.36
2019-05-09T01:27:26.960Z,94332.23
2019-05-09T01:28:30.424Z,94338.17
2019-05-09T01:29:33.981Z,94338.80
2019-05-09T01:30:37.505Z,94341.80
2019-05-09T01:31:41.037Z,94338.89
2019-05-09T01:32:53.933Z,94332.61
2019-05-09T01:33:58.922Z,94334.05
2019-05-09T01:35:03.845Z,94327.14
2019-05-09T01:36:07.503Z,94324.99
2019-05-09T01:37:14.118Z,94324.64
2019-05-09T01:38:17.441Z,94328.23
2019-05-09T01:39:20.933Z,94332.11
2019-05-09T01:40:24.400Z,94337.60
2019-05-09T01:41:33.406Z,94333.60
2019-05-09T01:42:33.781Z,94333.16
2019-05-09T01:43:37.485Z,94337.31
2019-05-09T01:44:40.949Z,94343.44
2019-05-09T01:45:46.915Z,94337.02
2019-05-09T01:46:49.750Z,94345.63
2019-05-09T01:47:53.756Z,94345.70
2019-05-09T01:48:57.381Z,94337.27
2019-05-09T01:50:03.743Z,94337.76
2019-05-09T01:51:06.253Z,94336.86
2019-05-09T01:52:09.730Z,94340.08
2019-05-09T01:53:14.834Z,94334.83
2019-05-09T01:54:19.294Z,94337.77
2019-05-09T01:55:24.643Z,94330.80
2019-05-09T01:56:28.106Z,94338.11
2019-05-09T01:57:33.653Z,94341.45
2019-05-09T01:58:36.837Z,94333.55
2019-05-09T01:59:40.389Z,94334.39
2019-05-09T02:00:43.988Z,94326.30
2019-05-09T02:01:47.457Z,94322.23
2019-05-09T02:02:50.925Z,94327.05
2019-05-09T02:03:54.457Z,94324.47
2019-05-09T02:04:58.015Z,94324.52
2019-05-09T02:06:03.547Z,94332.58
2019-05-09T02:07:07.031Z,94330.82
2019-05-09T02:08:10.572Z,94335.59
2019-05-09T02:09:14.199Z,94332.63
2019-05-09T02:10:17.806Z,94334.47
2019-05-09T02:11:23.623Z,94330.87
2019-05-09T02:12:26.449Z,94330.41
2019-05-09T02:13:29.913Z,94331.16
2019-05-09T02:14:43.869Z,94330.30
2019-05-09T02:15:57.709Z,94338.17
2019-05-09T02:17:18.901Z,94338.39
2019-05-09T02:18:26.983Z,94338.73
2019-05-09T02:19:34.687Z,94336.41
2019-05-09T02:20:38.184Z,94329.59
2019-05-09T02:21:43.648Z,94332.19
2019-05-09T02:22:46.922Z,94332.53
2019-05-09T02:23:50.523Z,94323.88
2019-05-09T02:24:54.077Z,94322.04
2019-05-09T02:25:57.582Z,94321.41
2019-05-09T02:27:01.049Z,94320.66
2019-05-09T02:28:04.656Z,94317.06
2019-05-09T02:29:08.128Z,94319.12
2019-05-09T02:30:15.323Z,94319.98
2019-05-09T02:31:17.471Z,94320.31
2019-05-09T02:32:23.750Z,94314.77
2019-05-09T02:33:26.179Z,94317.57
2019-05-09T02:34:29.660Z,94319.41
2019-05-09T02:35:43.406Z,94321.84
2019-05-09T02:36:38.599Z,94319.06
2019-05-09T02:37:42.042Z,94318.50
2019-05-09T02:38:48.576Z,94319.41
2019-05-09T02:39:50.835Z,94323.46
2019-05-09T02:40:54.335Z,94321.06
2019-05-09T02:42:08.015Z,94319.41
2019-05-09T02:43:03.223Z,94316.49
2019-05-09T02:44:09.339Z,94322.72
2019-05-09T02:45:12.523Z,94323.98
2019-05-09T02:46:32.441Z,94324.20
2019-05-09T02:47:38.510Z,94326.26
2019-05-09T02:48:41.186Z,94326.50
2019-05-09T02:49:44.654Z,94320.16
2019-05-09T02:50:48.734Z,94324.02
2019-05-09T02:51:52.266Z,94320.03
2019-05-09T02:52:58.871Z,94316.78
2019-05-09T02:54:00.904Z,94314.77
2019-05-09T02:55:05.520Z,94315.23
2019-05-09T02:56:09.462Z,94311.88
2019-05-09T02:57:13.048Z,94317.13
2019-05-09T02:58:20.286Z,94315.63
2019-05-09T02:59:24.986Z,94317.52
2019-05-09T03:00:48.311Z,94307.71
2019-05-09T03:01:53.468Z,94308.61
2019-05-09T03:02:59.507Z,94312.22
2019-05-09T03:04:03.307Z,94306.55
2019-05-09T03:05:08.825Z,94318.11
2019-05-09T03:06:12.595Z,94313.08
2019-05-09T03:07:18.873Z,94314.16
2019-05-09T03:08:21.406Z,94314.55
2019-05-09T03:09:25.008Z,94313.91
2019-05-09T03:10:29.559Z,94309.71
2019-05-09T03:11:33.178Z,94313.92
2019-05-09T03:12:39.895Z,94312.50
2019-05-09T03:13:41.977Z,94310.85
2019-05-09T03:14:48.545Z,94303.31
2019-05-09T03:15:52.475Z,94296.42
2019-05-09T03:16:58.710Z,94310.22
2019-05-09T03:18:01.219Z,94306.44
2019-05-09T03:19:04.824Z,94300.28
2019-05-09T03:20:10.773Z,94308.23
2019-05-09T03:21:30.841Z,94308.23
2019-05-09T03:22:34.323Z,94308.05
2019-05-09T03:23:38.792Z,94301.19
2019-05-09T03:24:42.640Z,94306.73
2019-05-09T03:25:48.408Z,94305.55
2019-05-09T03:26:59.658Z,94299.95
2019-05-09T03:28:10.711Z,94301.60
2019-05-09T03:29:31.012Z,94300.02
2019-05-09T03:30:39.882Z,94305.36
2019-05-09T03:31:43.988Z,94301.53
2019-05-09T03:32:49.020Z,94303.75
2019-05-09T03:33:52.626Z,94305.70
2019-05-09T03:34:58.001Z,94302.45
2019-05-09T03:36:01.348Z,94301.82
2019-05-09T03:37:04.905Z,94305.30
2019-05-09T03:38:08.597Z,94304.58
2019-05-09T03:39:12.082Z,94301.77
2019-05-09T03:40:17.945Z,94298.24
2019-05-09T03:41:20.806Z,94300.80
2019-05-09T03:42:38.072Z,94296.35
2019-05-09T03:43:29.560Z,94302.13
2019-05-09T03:44:33.104Z,94292.26
2019-05-09T03:45:41.134Z,94298.07
2019-05-09T03:46:52.042Z,94293.27
2019-05-09T03:47:58.252Z,94292.48
2019-05-09T03:49:07.527Z,94295.67
2019-05-09T03:50:17.651Z,94292.48
2019-05-09T03:51:21.496Z,94295.78
2019-05-09T03:52:24.984Z,94295.45
2019-05-09T03:53:28.478Z,94290.02
2019-05-09T03:54:31.976Z,94288.25
2019-05-09T03:55:38.184Z,94289.34
2019-05-09T03:56:48.058Z,94297.82
2019-05-09T03:57:59.099Z,94297.48
2019-05-09T03:59:02.652Z,94294.81
2019-05-09T04:00:08.355Z,94289.86
2019-05-09T04:01:11.819Z,94294.58
2019-05-09T04:02:17.654Z,94297.20
2019-05-09T04:03:20.981Z,94294.09
2019-05-09T04:04:24.521Z,94290.75
2019-05-09T04:05:28.044Z,94294.70
2019-05-09T04:06:31.507Z,94294.70
2019-05-09T04:07:34.991Z,94297.10
2019-05-09T04:08:38.463Z,94297.78
2019-05-09T04:09:41.920Z,94299.66
2019-05-09T04:10:49.947Z,94303.38
2019-05-09T04:11:52.234Z,94304.50
2019-05-09T04:12:58.986Z,94307.09
2019-05-09T04:14:08.458Z,94307.02
2019-05-09T04:15:12.014Z,94298.96
2019-05-09T04:16:17.344Z,94294.88
2019-05-09T04:17:20.758Z,94292.69
2019-05-09T04:18:24.226Z,94296.81
2019-05-09T04:19:27.778Z,94293.84
2019-05-09T04:20:31.236Z,94301.48
2019-05-09T04:21:34.772Z,94305.23
2019-05-09T04:22:38.644Z,94300.84
2019-05-09T04:23:42.112Z,94310.31
2019-05-09T04:24:47.389Z,94303.80
2019-05-09T04:25:52.819Z,94300.32
2019-05-09T04:27:01.093Z,94301.38
2019-05-09T04:28:07.352Z,94305.13
2019-05-09T04:29:10.469Z,94300.27
2019-05-09T04:30:15.544Z,94297.58
2019-05-09T04:31:19.012Z,94301.73
2019-05-09T04:32:22.544Z,94299.67
2019-05-09T04:33:27.949Z,94297.40
2019-05-09T04:34:31.285Z,94299.73
2019-05-09T04:35:34.754Z,94300.14
2019-05-09T04:36:41.269Z,94299.73
2019-05-09T04:37:44.736Z,94301.02
2019-05-09T04:38:48.217Z,94302.84
2019-05-09T04:39:54.064Z,94302.84
2019-05-09T04:40:58.426Z,94300.84
2019-05-09T04:42:05.491Z,94300.61
2019-05-09T04:43:15.401Z,94297.48
2019-05-09T04:44:19.312Z,94300.98
2019-05-09T04:45:23.652Z,94295.40
2019-05-09T04:46:27.747Z,94293.18
2019-05-09T04:47:33.923Z,94300.02
2019-05-09T04:48:37.612Z,94294.88
2019-05-09T04:49:45.113Z,94293.68
2019-05-09T04:50:47.857Z,94296.70
2019-05-09T04:51:51.346Z,94300.12
2019-05-09T04:52:54.880Z,94300.70
2019-05-09T04:53:58.495Z,94306.08
2019-05-09T04:55:01.918Z,94306.67
2019-05-09T04:56:07.277Z,94298.92
2019-05-09T04:57:10.830Z,94302.73
2019-05-09T04:58:14.292Z,94302.77
2019-05-09T04:59:18.110Z,94304.27
2019-05-09T05:00:23.251Z,94305.02
2019-05-09T05:01:31.132Z,94307.63
2019-05-09T05:02:41.895Z,94309.57
2019-05-09T05:03:47.905Z,94303.67
2019-05-09T05:04:51.067Z,94305.89
2019-05-09T05:05:54.530Z,94303.83
2019-05-09T05:06:58.665Z,94301.80
2019-05-09T05:08:02.222Z,94309.83
2019-05-09T05:09:10.104Z,94304.58
2019-05-09T05:10:13.833Z,94307.27
2019-05-09T05:11:17.904Z,94308.80
2019-05-09T05:12:21.495Z,94303.58
2019-05-09T05:13:27.320Z,94305.48
2019-05-09T05:14:30.191Z,94305.70
2019-05-09T05:15:33.651Z,94309.41
2019-05-09T05:16:39.217Z,94307.70
2019-05-09T05:17:42.382Z,94310.05
2019-05-09T05:18:47.817Z,94315.00
2019-05-09T05:19:51.294Z,94314.31
2019-05-09T05:20:54.930Z,94311.84
2019-05-09T05:22:00.045Z,94313.07
2019-05-09T05:23:05.206Z,94312.63
2019-05-09T05:24:10.336Z,94317.81
2019-05-09T05:25:13.970Z,94315.94
2019-05-09T05:26:18.577Z,94311.16
2019-05-09T05:27:22.052Z,94313.78
2019-05-09T05:28:27.694Z,94317.84
2019-05-09T05:29:30.835Z,94314.53
2019-05-09T05:30:34.389Z,94312.44
2019-05-09T05:31:38.790Z,94314.16
2019-05-09T05:32:44.043Z,94315.50
2019-05-09T05:33:53.835Z,94312.66
2019-05-09T05:34:58.437Z,94312.72
2019-05-09T05:36:09.372Z,94315.28
2019-05-09T05:37:12.919Z,94312.55
2019-05-09T05:38:17.649Z,94312.55
2019-05-09T05:39:21.230Z,94307.47
2019-05-09T05:40:24.727Z,94306.11
2019-05-09T05:41:28.526Z,94311.64
2019-05-09T05:42:32.028Z,94305.19
2019-05-09T05:43:41.602Z,94310.55
2019-05-09T05:44:40.756Z,94315.28
2019-05-09T05:45:47.943Z,94320.77
2019-05-09T05:47:01.799Z,94318.83
2019-05-09T05:48:09.996Z,94313.91
2019-05-09T05:49:13.472Z,94324.53
2019-05-09T05:50:17.742Z,94319.12
2019-05-09T05:51:21.244Z,94320.37
2019-05-09T05:52:24.709Z,94319.39
2019-05-09T05:53:28.174Z,94320.06
2019-05-09T05:54:31.720Z,94324.38
2019-05-09T05:55:35.188Z,94320.33
2019-05-09T05:56:38.691Z,94319.46
2019-05-09T05:57:42.151Z,94325.80
2019-05-09T05:58:45.611Z,94321.23
2019-05-09T05:59:49.147Z,94315.64
2019-05-09T06:00:52.631Z,94321.38
2019-05-09T06:01:58.300Z,94318.38
2019-05-09T06:03:01.403Z,94319.12
2019-05-09T06:04:04.948Z,94324.88
2019-05-09T06:05:08.655Z,94315.56
2019-05-09T06:06:12.201Z,94314.80
2019-05-09T06:07:18.281Z,94316.27
2019-05-09T06:08:21.339Z,94316.94
2019-05-09T06:09:24.802Z,94320.95
2019-05-09T06:10:29.041Z,94321.06
2019-05-09T06:11:32.648Z,94321.41
2019-05-09T06:12:38.077Z,94324.30
2019-05-09T06:13:53.306Z,94321.44
2019-05-09T06:14:48.063Z,94316.70
2019-05-09T06:15:51.705Z,94318.24
2019-05-09T06:16:55.337Z,94320.98
2019-05-09T06:17:58.806Z,94324.17
2019-05-09T06:19:02.555Z,94318.35
2019-05-09T06:20:08.945Z,94319.02
2019-05-09T06:21:11.778Z,94322.66
2019-05-09T06:22:15.467Z,94323.52
2019-05-09T06:23:19.010Z,94324.18
2019-05-09T06:24:22.473Z,94318.52
2019-05-09T06:25:30.047Z,94315.73
2019-05-09T06:26:31.208Z,94316.30
2019-05-09T06:27:34.762Z,94318.28
2019-05-09T06:28:38.366Z,94317.30
2019-05-09T06:29:41.912Z,94318.95
2019-05-09T06:30:47.244Z,94313.97
2019-05-09T06:31:50.659Z,94311.27
2019-05-09T06:32:58.656Z,94313.25
2019-05-09T06:34:02.259Z,94310.28
2019-05-09T06:35:08.191Z,94313.51
2019-05-09T06:36:11.360Z,94310.05
2019-05-09T06:37:14.831Z,94310.66
2019-05-09T06:38:18.878Z,94314.86
2019-05-09T06:39:22.370Z,94314.80
2019-05-09T06:40:26.573Z,94310.16
2019-05-09T06:41:31.232Z,94315.83
2019-05-09T06:42:34.735Z,94312.63
2019-05-09T06:43:39.917Z,94317.39
2019-05-09T06:44:50.917Z,94314.04
2019-05-09T06:46:04.428Z,94317.39
2019-05-09T06:47:15.360Z,94320.06
2019-05-09T06:48:20.524Z,94317.67
2019-05-09T06:49:31.794Z,94318.11
2019-05-09T06:50:34.059Z,94328.21
2019-05-09T06:51:38.751Z,94323.03
2019-05-09T06:52:42.311Z,94318.02
2019-05-09T06:53:45.800Z,94317.77
2019-05-09T06:54:49.281Z,94315.06
2019-05-09T06:55:52.824Z,94325.02
2019-05-09T06:56:58.398Z,94329.48
2019-05-09T06:58:03.150Z,94315.66
2019-05-09T06:59:07.673Z,94319.93
2019-05-09T07:00:13.369Z,94321.91
2019-05-09T07:01:21.233Z,94317.13
2019-05-09T07:02:28.287Z,94316.66
2019-05-09T07:03:33.260Z,94317.64
2019-05-09T07:04:38.388Z,94312.05
2019-05-09T07:05:59.514Z,94315.10
2019-05-09T07:07:08.105Z,94313.55
2019-05-09T07:08:13.275Z,94311.06
2019-05-09T07:09:18.417Z,94306.31
2019-05-09T07:10:21.957Z,94310.25
2019-05-09T07:11:27.568Z,94305.23
2019-05-09T07:12:30.692Z,94306.64
2019-05-09T07:13:34.174Z,94304.34
2019-05-09T07:14:41.293Z,94305.74
2019-05-09T07:15:42.851Z,94308.46
2019-05-09T07:16:47.843Z,94305.34
2019-05-09T07:17:51.940Z,94304.19
2019-05-09T07:18:57.929Z,94306.16
2019-05-09T07:20:01.557Z,94303.84
2019-05-09T07:21:05.368Z,94301.57
2019-05-09T07:22:18.442Z,94298.58
2019-05-09T07:23:21.841Z,94300.73
2019-05-09T07:24:28.492Z,94300.57
2019-05-09T07:25:32.498Z,94297.95
2019-05-09T07:26:37.342Z,94305.19
2019-05-09T07:27:42.547Z,94300.60
2019-05-09T07:28:48.396Z,94298.36
2019-05-09T07:29:52.654Z,94298.61
2019-05-09T07:31:04.013Z,94302.31
2019-05-09T07:32:15.467Z,94298.30
2019-05-09T07:33:23.492Z,94302.39
2019-05-09T07:34:28.850Z,94286.63
2019-05-09T07:35:32.409Z,94291.18
2019-05-09T07:36:38.384Z,94297.30
2019-05-09T07:37:41.781Z,94291.97
2019-05-09T07:38:47.790Z,94279.12
2019-05-09T07:39:51.626Z,94284.31
2019-05-09T07:40:55.116Z,94286.61
2019-05-09T07:41:58.644Z,94278.36
2019-05-09T07:43:02.137Z,94275.39
2019-05-09T07:44:07.585Z,94274.91
2019-05-09T07:45:11.131Z,94282.15
2019-05-09T07:46:28.863Z,94279.66
2019-05-09T07:47:32.520Z,94279.91
2019-05-09T07:48:38.209Z,94280.56
2019-05-09T07:49:41.899Z,94282.55
2019-05-09T07:50:45.371Z,94278.74
2019-05-09T07:51:48.872Z,94283.05
2019-05-09T07:52:52.335Z,94283.52
2019-05-09T07:53:58.690Z,94282.84
2019-05-09T07:55:01.579Z,94276.52
2019-05-09T07:56:05.206Z,94276.52
2019-05-09T07:57:08.792Z,94274.34
2019-05-09T07:58:14.331Z,94282.00
2019-05-09T07:59:18.170Z,94275.48
2019-05-09T08:00:35.026Z,94275.30
2019-05-09T08:01:38.655Z,94275.13
2019-05-09T08:02:42.204Z,94269.54
2019-05-09T08:03:45.789Z,94270.53
2019-05-09T08:04:49.262Z,94270.17
2019-05-09T08:05:53.519Z,94276.91
2019-05-09T08:06:57.939Z,94275.63
2019-05-09T08:08:01.737Z,94267.08
2019-05-09T08:09:08.418Z,94263.34
2019-05-09T08:10:12.207Z,94264.90
2019-05-09T08:11:18.007Z,94269.81
2019-05-09T08:12:21.272Z,94267.67
2019-05-09T08:13:24.751Z,94273.47
2019-05-09T08:14:28.388Z,94270.76
2019-05-09T08:15:31.984Z,94270.39
2019-05-09T08:16:37.785Z,94275.63
2019-05-09T08:17:41.583Z,94274.20
2019-05-09T08:18:45.060Z,94261.12
2019-05-09T08:19:48.627Z,94263.82
2019-05-09T08:20:52.061Z,94267.09
2019-05-09T08:21:57.505Z,94257.66
2019-05-09T08:23:02.331Z,94262.75
2019-05-09T08:24:08.094Z,94265.08
2019-05-09T08:25:11.497Z,94264.08
2019-05-09T08:26:15.005Z,94265.62
2019-05-09T08:27:18.686Z,94268.47
2019-05-09T08:28:22.331Z,94266.00
2019-05-09T08:29:28.192Z,94261.82
2019-05-09T08:30:35.889Z,94264.95
2019-05-09T08:31:40.097Z,94268.39
2019-05-09T08:32:41.874Z,94263.86
2019-05-09T08:33:45.492Z,94269.63
2019-05-09T08:34:48.966Z,94267.22
2019-05-09T08:35:52.922Z,94270.16
2019-05-09T08:36:57.988Z,94268.39
2019-05-09T08:38:01.787Z,94265.06
2019-05-09T08:39:08.124Z,94268.59
2019-05-09T08:40:11.892Z,94263.25
2019-05-09T08:41:18.387Z,94264.58
2019-05-09T08:42:21.342Z,94261.70
2019-05-09T08:43:25.030Z,94258.11
2019-05-09T08:44:31.237Z,94261.75
2019-05-09T08:45:34.015Z,94260.38
2019-05-09T08:46:37.856Z,94252.70
2019-05-09T08:47:41.517Z,94250.89
2019-05-09T08:48:45.154Z,94257.28
2019-05-09T08:49:58.408Z,94254.89
2019-05-09T08:51:19.386Z,94249.84
2019-05-09T08:52:23.014Z,94247.91
2019-05-09T08:53:27.593Z,94259.15
2019-05-09T08:54:44.561Z,94253.98
2019-05-09T08:55:48.105Z,94255.31
2019-05-09T08:56:51.637Z,94250.27
2019-05-09T08:57:55.172Z,94247.98
2019-05-09T08:59:01.958Z,94255.12
2019-05-09T09:00:08.162Z,94246.50
2019-05-09T09:01:12.170Z,94241.65
2019-05-09T09:02:21.654Z,94240.47
2019-05-09T09:03:21.153Z,94240.38
2019-05-09T09:04:24.624Z,94251.12
2019-05-09T09:05:28.877Z,94244.29
2019-05-09T09:06:32.488Z,94249.67
2019-05-09T09:07:37.978Z,94239.04
2019-05-09T09:08:41.157Z,94235.12
2019-05-09T09:09:44.599Z,94235.55
2019-05-09T09:10:48.955Z,94233.45
2019-05-09T09:11:52.650Z,94240.81
2019-05-09T09:12:58.110Z,94231.66
2019-05-09T09:14:01.330Z,94223.82
2019-05-09T09:15:07.782Z,94233.15
2019-05-09T09:16:18.440Z,94224.70
2019-05-09T09:17:18.732Z,94231.31
2019-05-09T09:18:22.161Z,94220.77
2019-05-09T09:19:27.884Z,94217.12
2019-05-09T09:20:31.368Z,94224.81
2019-05-09T09:21:35.036Z,94223.09
2019-05-09T09:22:38.506Z,94220.21
2019-05-09T09:23:46.742Z,94208.48
2019-05-09T09:24:48.292Z,94221.91
2019-05-09T09:25:51.761Z,94212.98
2019-05-09T09:26:57.261Z,94213.21
2019-05-09T09:28:00.537Z,94206.02
2019-05-09T09:29:04.050Z,94210.59
2019-05-09T09:30:17.636Z,94214.02
2019-05-09T09:31:12.975Z,94217.87
2019-05-09T09:32:19.006Z,94231.40
2019-05-09T09:33:21.591Z,94210.02
2019-05-09T09:34:27.119Z,94202.44
2019-05-09T09:35:30.312Z,94211.97
2019-05-09T09:36:33.737Z,94215.55
2019-05-09T09:37:47.561Z,94216.05
2019-05-09T09:38:43.375Z,94207.38
2019-05-09T09:39:48.847Z,94210.95
2019-05-09T09:40:51.980Z,94209.55
2019-05-09T09:41:55.502Z,94210.28
2019-05-09T09:42:59.072Z,94207.08
2019-05-09T09:44:02.719Z,94212.23
2019-05-09T09:45:07.794Z,94211.80
2019-05-09T09:46:14.638Z,94205.27
2019-05-09T09:47:22.382Z,94204.50
2019-05-09T09:48:22.547Z,94205.52
2019-05-09T09:49:28.975Z,94197.02
2019-05-09T09:50:32.203Z,94206.84
2019-05-09T09:51:38.043Z,94209.49
2019-05-09T09:52:41.091Z,94219.36
2019-05-09T09:53:44.846Z,94207.45
2019-05-09T09:54:48.413Z,94201.70
2019-05-09T09:55:51.875Z,94204.45
2019-05-09T09:56:55.375Z,94206.30
2019-05-09T09:57:59.156Z,94209.08
2019-05-09T09:59:22.432Z,94212.27
2019-05-09T10:00:47.639Z,94206.30
2019-05-09T10:01:55.016Z,94210.98
2019-05-09T10:02:58.779Z,94209.08
2019-05-09T10:04:19.407Z,94208.74
2019-05-09T10:05:14.979Z,94203.32
2019-05-09T10:06:18.884Z,94205.72
2019-05-09T10:07:22.397Z,94205.47
2019-05-09T10:08:25.999Z,94206.95
2019-05-09T10:09:29.432Z,94198.70
2019-05-09T10:10:35.042Z,94202.66
2019-05-09T10:11:39.810Z,94202.11
2019-05-09T10:12:44.566Z,94197.56
2019-05-09T10:13:51.744Z,94200.79
2019-05-09T10:14:57.954Z,94202.27
2019-05-09T10:16:05.639Z,94204.81
2019-05-09T10:17:28.098Z,94201.14
2019-05-09T10:18:33.328Z,94202.63
2019-05-09T10:19:42.087Z,94205.44
2019-05-09T10:20:48.487Z,94204.39
2019-05-09T10:21:54.297Z,94204.99
2019-05-09T10:23:09.027Z,94204.88
2019-05-09T10:24:03.297Z,94208.17
2019-05-09T10:25:07.918Z,94205.38
2019-05-09T10:26:11.593Z,94202.77
2019-05-09T10:27:18.513Z,94204.25
2019-05-09T10:28:22.133Z,94196.32
2019-05-09T10:29:27.916Z,94197.34
2019-05-09T10:30:34.489Z,94195.91
2019-05-09T10:31:39.235Z,94194.41
2019-05-09T10:32:42.878Z,94195.42
2019-05-09T10:33:48.256Z,94196.31
2019-05-09T10:34:51.768Z,94191.02
2019-05-09T10:35:55.278Z,94180.27
2019-05-09T10:36:59.113Z,94182.58
2019-05-09T10:38:03.172Z,94185.39
2019-05-09T10:39:08.262Z,94190.26
2019-05-09T10:40:15.145Z,94195.98
2019-05-09T10:41:18.917Z,94199.70
2019-05-09T10:42:24.426Z,94197.17
2019-05-09T10:43:38.108Z,94199.36
2019-05-09T10:44:37.507Z,94193.42
2019-05-09T10:45:59.295Z,94198.42
2019-05-09T10:47:04.755Z,94197.84
2019-05-09T10:48:08.487Z,94198.72
2019-05-09T10:49:12.198Z,94201.37
2019-05-09T10:50:18.292Z,94206.66
2019-05-09T10:51:21.086Z,94195.47
2019-05-09T10:52:30.293Z,94208.55
2019-05-09T10:53:33.736Z,94205.29
2019-05-09T10:54:37.164Z,94210.30
2019-05-09T10:55:40.617Z,94213.23
2019-05-09T10:56:44.153Z,94217.06
2019-05-09T10:57:52.058Z,94212.49
2019-05-09T10:58:53.319Z,94218.20
2019-05-09T10:59:57.962Z,94216.11
2019-05-09T11:01:01.589Z,94219.50
2019-05-09T11:02:09.210Z,94228.92
2019-05-09T11:03:11.517Z,94232.47
2019-05-09T11:04:15.308Z,94230.41
2019-05-09T11:05:19.025Z,94230.69
2019-05-09T11:06:22.612Z,94238.45
2019-05-09T11:07:28.703Z,94235.95
2019-05-09T11:08:31.329Z,94239.14
2019-05-09T11:09:35.384Z,94240.63
2019-05-09T11:10:39.924Z,94246.64
2019-05-09T11:11:44.242Z,94250.60
2019-05-09T11:12:48.184Z,94256.17
2019-05-09T11:13:51.957Z,94245.86
2019-05-09T11:14:55.472Z,94261.12
2019-05-09T11:15:59.074Z,94264.27
2019-05-09T11:17:10.757Z,94264.71
2019-05-09T11:18:08.280Z,94280.95
2019-05-09T11:19:11.724Z,94284.40
2019-05-09T11:20:15.212Z,94296.09
2019-05-09T11:21:19.463Z,94301.02
2019-05-09T11:22:23.651Z,94300.75
2019-05-09T11:23:29.184Z,94301.94
2019-05-09T11:24:44.923Z,94308.55
2019-05-09T11:25:38.013Z,94321.03
2019-05-09T11:26:41.705Z,94326.60
2019-05-09T11:27:45.264Z,94328.23
2019-05-09T11:28:48.703Z,94324.36
2019-05-09T11:29:52.207Z,94325.89
2019-05-09T11:30:55.705Z,94320.84
2019-05-09T11:31:59.238Z,94331.02
2019-05-09T11:33:02.672Z,94336.47
2019-05-09T11:34:08.906Z,94335.92
2019-05-09T11:35:11.542Z,94331.28
2019-05-09T11:36:19.986Z,94347.56
2019-05-09T11:37:22.202Z,94346.70
2019-05-09T11:38:32.180Z,94354.31
2019-05-09T11:39:38.202Z,94352.73
2019-05-09T11:40:37.845Z,94351.38
2019-05-09T11:41:41.460Z,94360.90
2019-05-09T11:42:44.907Z,94342.36
2019-05-09T11:43:48.757Z,94335.22
2019-05-09T11:44:52.253Z,94334.94
2019-05-09T11:45:55.684Z,94327.34
2019-05-09T11:46:59.208Z,94318.36
2019-05-09T11:48:02.747Z,94304.64
2019-05-09T11:49:08.352Z,94306.02
2019-05-09T11:50:11.512Z,94294.39
2019-05-09T11:51:18.241Z,94298.28
2019-05-09T11:52:20.183Z,94293.99
2019-05-09T11:53:23.614Z,94291.30
2019-05-09T11:54:27.958Z,94289.25
2019-05-09T11:55:36.039Z,94285.16
2019-05-09T11:56:38.492Z,94286.50
2019-05-09T11:57:42.028Z,94285.80
2019-05-09T11:58:47.825Z,94278.58
2019-05-09T11:59:50.613Z,94282.91
2019-05-09T12:00:54.106Z,94277.37
2019-05-09T12:01:58.570Z,94278.14
2019-05-09T12:03:02.389Z,94270.83
2019-05-09T12:04:07.994Z,94274.12
2019-05-09T12:05:11.136Z,94269.19
2019-05-09T12:06:16.154Z,94276.91
2019-05-09T12:07:19.784Z,94272.89
2019-05-09T12:08:23.246Z,94267.33
2019-05-09T12:09:28.815Z,94269.12
2019-05-09T12:10:31.893Z,94268.06
2019-05-09T12:11:39.133Z,94252.72
2019-05-09T12:12:40.608Z,94241.81
2019-05-09T12:13:44.057Z,94249.29
2019-05-09T12:14:48.347Z,94249.53
2019-05-09T12:15:51.932Z,94249.16
2019-05-09T12:16:55.434Z,94248.02
2019-05-09T12:18:05.385Z,94247.89
2019-05-09T12:19:04.118Z,94247.09
2019-05-09T12:20:12.572Z,94245.96
2019-05-09T12:21:13.045Z,94244.81
2019-05-09T12:22:19.143Z,94235.59
2019-05-09T12:23:21.687Z,94238.60
2019-05-09T12:24:25.282Z,94245.47
2019-05-09T12:25:28.719Z,94248.52
2019-05-09T12:26:32.222Z,94236.11
2019-05-09T12:27:35.670Z,94238.80
2019-05-09T12:28:39.180Z,94243.58
2019-05-09T12:29:42.638Z,94238.91
2019-05-09T12:30:48.788Z,94238.18
2019-05-09T12:31:51.350Z,94242.49
2019-05-09T12:32:54.793Z,94234.16
2019-05-09T12:33:59.423Z,94224.42
2019-05-09T12:35:03.272Z,94228.30
2019-05-09T12:36:09.183Z,94218.95
2019-05-09T12:37:12.143Z,94231.20
2019-05-09T12:38:17.898Z,94227.03
2019-05-09T12:39:20.796Z,94220.22
2019-05-09T12:40:24.245Z,94219.25
2019-05-09T12:41:31.448Z,94215.92
2019-05-09T12:42:32.850Z,94208.44